Observations for ALICANTE EL ALTET, Spain (LEAL)

LEAL 242030Z 07007KT CAVOK 19/12 Q1015 NOSIG
LEAL 242000Z 08010KT CAVOK 20/11 Q1014 NOSIG
LEAL 241930Z 07012KT CAVOK 21/09 Q1014 NOSIG
LEAL 241900Z 06013KT CAVOK 20/10 Q1014 NOSIG
LEAL 241830Z 07016KT CAVOK 20/11 Q1014 NOSIG
LEAL 241800Z 07022KT CAVOK 21/11 Q1014 NOSIG
LEAL 241730Z 08019KT CAVOK 21/12 Q1014 NOSIG
LEAL 241700Z 08019KT CAVOK 22/11 Q1015 NOSIG
LEAL 241630Z 08020KT CAVOK 22/12 Q1015 NOSIG
LEAL 241600Z 08019KT CAVOK 22/12 Q1014 NOSIG
LEAL 241530Z 08017G28KT CAVOK 23/12 Q1015 NOSIG 
LEAL 241500Z 08020G30KT CAVOK 24/11 Q1015 NOSIG 
LEAL 241430Z 08021KT CAVOK 24/11 Q1014 NOSIG
LEAL 241400Z 08019KT CAVOK 24/11 Q1015 NOSIG
LEAL 241330Z 08021G31KT CAVOK 25/11 Q1015 NOSIG 
LEAL 241300Z 07020G32KT CAVOK 24/11 Q1015 NOSIG 
LEAL 241230Z 07021G36KT CAVOK 24/11 Q1015 NOSIG 
LEAL 241200Z 06019G29KT 020V090 CAVOK 24/10 Q1015 NOSIG 
LEAL 241130Z 06018KT 030V090 CAVOK 25/11 Q1015 NOSIG
LEAL 241100Z 07022KT 030V100 CAVOK 24/10 Q1016 NOSIG
LEAL 241030Z 06018G30KT 030V090 CAVOK 25/10 Q1016 NOSIG 
LEAL 241000Z 06018G28KT 030V100 CAVOK 25/09 Q1016 NOSIG 
LEAL 240930Z 06018KT 010V080 CAVOK 24/09 Q1016 NOSIG
LEAL 240900Z 06017G27KT 030V090 CAVOK 24/09 Q1016 NOSIG 
LEAL 240830Z 06017G28KT CAVOK 24/09 Q1016 NOSIG 
LEAL 240800Z 06017KT CAVOK 23/08 Q1015 NOSIG
LEAL 240730Z 07020G31KT 9999 FEW035 21/09 Q1015 NOSIG   
LEAL 240700Z 07019G30KT 9999 FEW035 20/10 Q1015 NOSIG   
LEAL 240630Z 08020KT 9999 FEW035 20/09 Q1014 NOSIG  
LEAL 240600Z 07019KT 9999 FEW035 20/09 Q1014 NOSIG  
LEAL 240530Z 06016KT 9999 FEW035 22/08 Q1013 NOSIG  
LEAL 240500Z 05019G29KT 9999 FEW035TCU SCT050 21/06 Q1013 NOSIG 
LEAL 240430Z 06020G31KT 9999 FEW035TCU SCT050 21/08 Q1013 NOSIG 
LEAL 240400Z 06025G37KT 9999 FEW035TCU SCT050 20/10 Q1014 RERA NOSIG
LEAL 240330Z 07024KT 040V100 9999 -SHRA FEW030CB 19/10 Q1014 NOSIG  
LEAL 240300Z 05021G31KT 030V090 9999 -RA FEW030CB 20/09 Q1014 NOSIG 
LEAL 240230Z 08011KT 9999 FEW030 21/08 Q1017 NOSIG  
LEAL 240200Z 10004KT 060V170 CAVOK 22/06 Q1017 NOSIG
LEAL 240130Z 21006KT 140V240 CAVOK 22/06 Q1017 NOSIG
LEAL 240100Z 04016KT CAVOK 22/05 Q1015 NOSIG
LEAL 240030Z 07011KT CAVOK 22/05 Q1016 NOSIG
LEAL 240000Z 06013KT 020V080 CAVOK 22/03 Q1015 NOSIG
LEAL 232330Z 07010KT CAVOK 20/08 Q1016 NOSIG
LEAL 232300Z 07009KT CAVOK 21/05 Q1016 NOSIG
LEAL 232230Z 04009KT 020V080 CAVOK 21/06 Q1016 NOSIG